Time;durP1;ratioP1;P1;durP2;ratioP2;P2;SDS_P1;SDS_P2;PMS_P1;PMS_P2;Temp;Humidity;BMP_temperature;BMP_pressure;BME280_temperature;BME280_humidity;BME280_pressure;Samples;Min_cycle;Max_cycle;Signal;HPM_P1;HPM_P2
2021/03/16 00:00:26;;;;;;;28.02;5.75;;;5.10;91.50;;;;;;4923130;29;20067;-51
2021/03/16 00:02:51;;;;;;;25.80;4.65;;;5.10;91.40;;;;;;4923320;29;20816;-48
2021/03/16 00:05:17;;;;;;;30.67;5.00;;;5.10;91.40;;;;;;4966831;28;20070;-50
2021/03/16 00:07:43;;;;;;;30.55;4.70;;;5.10;91.40;;;;;;4961292;28;20108;-49
2021/03/16 00:10:09;;;;;;;33.10;5.30;;;5.10;91.40;;;;;;4969546;28;20146;-51
2021/03/16 00:12:35;;;;;;;29.70;5.00;;;5.00;91.50;;;;;;4977926;28;20434;-48
2021/03/16 00:15:01;;;;;;;25.50;4.25;;;5.10;91.50;;;;;;4975935;28;20058;-50
2021/03/16 00:17:27;;;;;;;29.23;5.03;;;5.10;91.40;;;;;;4975583;28;20061;-52
2021/03/16 00:19:53;;;;;;;26.52;5.40;;;5.00;91.30;;;;;;4983167;28;20105;-48
2021/03/16 00:22:19;;;;;;;22.45;4.50;;;5.00;91.30;;;;;;4967622;28;20060;-49
2021/03/16 00:24:45;;;;;;;24.17;4.85;;;5.00;91.30;;;;;;4967469;28;20897;-49
2021/03/16 00:27:11;;;;;;;32.42;5.32;;;5.00;91.20;;;;;;4975457;28;20891;-53
2021/03/16 00:29:39;;;;;;;25.70;3.92;;;5.10;91.00;;;;;;4977050;28;20050;-48
2021/03/16 00:32:05;;;;;;;21.75;4.68;;;5.20;90.70;;;;;;4977857;28;20039;-46
2021/03/16 00:34:31;;;;;;;24.15;4.53;;;5.20;90.60;;;;;;4973999;28;20050;-48
2021/03/16 00:36:57;;;;;;;20.65;4.45;;;5.20;90.60;;;;;;4981059;28;20518;-51
2021/03/16 00:39:23;;;;;;;27.80;4.90;;;5.20;90.60;;;;;;4977447;28;20491;-52
2021/03/16 00:41:51;;;;;;;25.25;4.85;;;5.30;90.50;;;;;;4984493;28;20050;-48
2021/03/16 00:44:17;;;;;;;21.88;4.78;;;5.30;90.50;;;;;;4977420;28;20222;-50
2021/03/16 00:46:43;;;;;;;26.85;4.93;;;5.40;90.50;;;;;;4977299;28;20525;-54
2021/03/16 00:49:09;;;;;;;22.92;4.55;;;5.30;90.60;;;;;;4978189;28;20423;-52
2021/03/16 00:51:37;;;;;;;26.40;4.53;;;5.30;90.60;;;;;;4981724;28;20190;-47
2021/03/16 00:54:03;;;;;;;29.75;5.88;;;5.30;90.60;;;;;;4971223;28;20070;-51
2021/03/16 00:56:30;;;;;;;27.48;5.30;;;5.30;90.70;;;;;;4975339;28;20069;-46
2021/03/16 00:58:58;;;;;;;21.95;4.95;;;5.30;90.60;;;;;;4975241;28;20051;-46
2021/03/16 01:01:24;;;;;;;25.67;4.78;;;5.30;90.50;;;;;;4976918;28;20078;-46
2021/03/16 01:03:50;;;;;;;33.88;5.93;;;5.30;90.60;;;;;;4984141;28;20042;-46
2021/03/16 01:06:18;;;;;;;29.10;5.10;;;5.30;90.60;;;;;;4971934;28;20055;-54
2021/03/16 01:08:48;;;;;;;29.13;5.68;;;5.30;90.60;;;;;;4969687;28;20563;-53
2021/03/16 01:11:14;;;;;;;28.85;5.13;;;5.40;90.40;;;;;;4971302;28;20058;-46
2021/03/16 01:13:39;;;;;;;29.30;4.93;;;5.40;90.60;;;;;;4978910;28;20129;-47
2021/03/16 01:16:09;;;;;;;23.05;4.20;;;5.40;90.60;;;;;;4983864;28;20050;-51
2021/03/16 01:18:40;;;;;;;20.63;4.32;;;5.40;90.70;;;;;;4975209;28;20129;-49
2021/03/16 01:21:07;;;;;;;36.97;4.93;;;5.50;90.70;;;;;;4984683;28;20054;-51
2021/03/16 01:23:33;;;;;;;26.05;5.53;;;5.40;90.80;;;;;;4978865;28;20489;-51
2021/03/16 01:25:59;;;;;;;26.73;4.57;;;5.50;90.70;;;;;;4973306;28;20042;-50
2021/03/16 01:28:26;;;;;;;26.02;4.88;;;5.50;90.60;;;;;;4980470;28;20098;-47
2021/03/16 01:30:52;;;;;;;20.45;4.15;;;5.50;90.40;;;;;;4978854;28;20054;-47
2021/03/16 01:33:17;;;;;;;26.70;4.93;;;5.50;90.30;;;;;;4976754;28;20847;-54
2021/03/16 01:35:43;;;;;;;27.40;4.25;;;5.50;89.50;;;;;;4985057;28;20653;-48
2021/03/16 01:38:09;;;;;;;25.00;4.63;;;5.60;88.20;;;;;;4983820;28;20056;-53
2021/03/16 01:40:40;;;;;;;22.83;4.38;;;5.60;88.90;;;;;;4965191;28;20042;-47
2021/03/16 01:43:13;;;;;;;16.95;3.83;;;5.60;88.10;;;;;;4978144;28;20042;-46
2021/03/16 01:45:42;;;;;;;16.73;3.40;;;5.60;87.80;;;;;;4980815;28;20048;-46
2021/03/16 01:48:10;;;;;;;13.05;3.30;;;5.70;87.70;;;;;;4978401;28;20069;-54
2021/03/16 01:50:37;;;;;;;23.67;3.63;;;5.70;86.90;;;;;;4977681;28;20058;-54
2021/03/16 01:53:05;;;;;;;20.27;3.05;;;5.70;87.10;;;;;;4972709;28;20522;-48
2021/03/16 01:55:31;;;;;;;16.35;4.15;;;5.70;87.40;;;;;;4982292;28;20507;-56
2021/03/16 01:57:58;;;;;;;17.98;3.40;;;5.70;87.30;;;;;;4975001;28;20050;-50
2021/03/16 02:00:30;;;;;;;18.48;3.30;;;5.70;87.10;;;;;;4975769;28;20047;-47
2021/03/16 02:02:56;;;;;;;18.80;3.70;;;5.70;87.00;;;;;;4983641;28;20051;-51
2021/03/16 02:05:22;;;;;;;23.27;3.53;;;5.70;86.60;;;;;;4985277;28;20049;-46
2021/03/16 02:08:17;;;;;;;17.52;3.72;;;5.70;87.20;;;;;;4976074;28;20055;-52
2021/03/16 02:10:55;;;;;;;20.38;4.03;;;5.70;88.10;;;;;;4901560;29;20059;-51
2021/03/16 02:13:53;;;;;;;19.58;3.70;;;5.70;88.50;;;;;;4898246;29;20140;-54
2021/03/16 02:16:26;;;;;;;37.58;5.55;;;5.70;88.50;;;;;;4901747;29;20051;-51
2021/03/16 02:18:57;;;;;;;23.65;3.78;;;5.70;88.70;;;;;;4889133;29;20053;-52
2021/03/16 02:21:28;;;;;;;21.33;4.32;;;5.70;88.70;;;;;;4898974;29;20060;-51
2021/03/16 02:24:16;;;;;;;24.63;3.85;;;5.70;88.60;;;;;;4890258;29;20080;-48
2021/03/16 02:27:08;;;;;;;27.42;3.83;;;5.70;88.70;;;;;;4897193;29;20059;-50
2021/03/16 02:29:43;;;;;;;28.08;4.22;;;5.70;88.90;;;;;;4894796;29;20523;-53
2021/03/16 02:32:15;;;;;;;20.30;3.83;;;5.70;89.00;;;;;;4899321;29;20048;-48
2021/03/16 02:34:45;;;;;;;13.73;2.72;;;5.70;88.90;;;;;;4891010;29;20076;-47
2021/03/16 02:37:11;;;;;;;22.17;3.80;;;5.70;88.80;;;;;;4904011;29;20048;-57
2021/03/16 02:39:38;;;;;;;22.90;4.40;;;5.70;88.80;;;;;;4898132;29;20266;-48
2021/03/16 02:42:08;;;;;;;20.25;3.75;;;5.70;89.10;;;;;;4893173;29;20167;-47
2021/03/16 02:44:35;;;;;;;21.30;3.80;;;5.70;89.20;;;;;;4896145;29;20048;-51
2021/03/16 02:47:03;;;;;;;18.92;3.85;;;5.70;89.20;;;;;;4914187;28;20054;-53
2021/03/16 02:49:29;;;;;;;24.77;3.83;;;5.70;90.00;;;;;;4982882;28;20109;-49
2021/03/16 02:51:56;;;;;;;30.98;4.18;;;5.70;89.80;;;;;;4977843;28;20381;-50
2021/03/16 02:54:25;;;;;;;21.38;4.25;;;5.60;89.90;;;;;;4977906;28;21193;-50
2021/03/16 02:56:52;;;;;;;26.40;4.20;;;5.60;90.00;;;;;;4980152;28;20054;-51
2021/03/16 02:59:20;;;;;;;19.95;3.70;;;5.70;90.10;;;;;;4971436;28;20451;-49
2021/03/16 03:01:47;;;;;;;21.02;3.10;;;5.60;90.10;;;;;;4969751;28;20050;-48
2021/03/16 03:04:14;;;;;;;22.02;4.65;;;5.70;90.20;;;;;;4976134;28;20050;-57
2021/03/16 03:06:41;;;;;;;27.83;4.20;;;5.60;90.20;;;;;;4976784;28;20051;-47
2021/03/16 03:09:10;;;;;;;23.40;4.50;;;5.60;90.30;;;;;;4980684;28;20046;-47
2021/03/16 03:11:39;;;;;;;21.63;3.63;;;5.60;90.50;;;;;;4970171;28;20057;-49
2021/03/16 03:14:07;;;;;;;24.40;4.00;;;5.60;90.50;;;;;;4965586;28;20562;-49
2021/03/16 03:16:33;;;;;;;21.83;3.85;;;5.60;90.60;;;;;;4975955;28;20142;-52
2021/03/16 03:18:59;;;;;;;24.90;3.97;;;5.60;90.70;;;;;;4973503;28;20129;-47
2021/03/16 03:21:52;;;;;;;21.73;4.53;;;5.60;90.80;;;;;;4975161;28;20057;-47
2021/03/16 03:24:25;;;;;;;25.83;4.95;;;5.60;90.90;;;;;;4974346;28;20051;-50
2021/03/16 03:27:00;;;;;;;20.58;4.18;;;5.60;91.00;;;;;;4969350;28;20050;-47
2021/03/16 03:29:26;;;;;;;26.35;3.55;;;5.60;91.10;;;;;;4978867;28;20046;-49
2021/03/16 03:31:55;;;;;;;24.95;4.43;;;5.60;91.20;;;;;;4970221;28;20131;-46
2021/03/16 03:34:22;;;;;;;19.88;3.65;;;5.50;91.10;;;;;;4974034;28;20810;-48
2021/03/16 03:37:00;;;;;;;21.13;4.35;;;5.50;91.20;;;;;;4975647;28;20047;-51
2021/03/16 03:39:34;;;;;;;22.77;4.75;;;5.50;91.20;;;;;;4978758;28;20323;-50
2021/03/16 03:42:02;;;;;;;21.98;4.75;;;5.50;91.20;;;;;;4978943;28;20498;-46
2021/03/16 03:44:33;;;;;;;19.80;3.72;;;5.50;91.30;;;;;;4968086;28;20161;-51
2021/03/16 03:47:01;;;;;;;22.33;4.55;;;5.50;91.30;;;;;;4973530;28;20046;-47
2021/03/16 03:49:28;;;;;;;24.38;3.65;;;5.50;91.30;;;;;;4974522;28;20133;-50
2021/03/16 03:51:57;;;;;;;19.77;4.68;;;5.50;91.30;;;;;;4981273;28;20124;-49
2021/03/16 03:54:24;;;;;;;29.50;4.68;;;5.50;91.30;;;;;;4975074;28;20047;-49
2021/03/16 03:56:51;;;;;;;22.38;4.00;;;5.50;91.20;;;;;;4976221;28;20086;-50
2021/03/16 03:59:18;;;;;;;16.73;3.40;;;5.40;91.30;;;;;;4972727;28;20050;-48
2021/03/16 04:01:46;;;;;;;21.42;3.85;;;5.40;91.30;;;;;;4974518;28;20119;-46
2021/03/16 04:04:12;;;;;;;17.55;4.57;;;5.40;91.50;;;;;;4980593;28;20060;-48
2021/03/16 04:06:38;;;;;;;20.88;3.92;;;5.40;91.60;;;;;;4983887;28;20070;-51
2021/03/16 04:09:04;;;;;;;25.75;4.25;;;5.40;91.60;;;;;;4973124;28;20419;-47
2021/03/16 04:11:30;;;;;;;17.23;3.92;;;5.40;91.60;;;;;;4983874;28;20054;-47
2021/03/16 04:13:57;;;;;;;21.20;3.67;;;5.40;91.60;;;;;;4973244;28;20302;-45
2021/03/16 04:16:27;;;;;;;19.02;3.63;;;5.50;91.70;;;;;;4976927;28;20142;-53
2021/03/16 04:18:53;;;;;;;24.20;3.55;;;5.40;91.90;;;;;;4985907;28;20050;-47
2021/03/16 04:21:20;;;;;;;22.00;4.57;;;5.50;92.00;;;;;;4975012;28;20468;-49
2021/03/16 04:23:47;;;;;;;22.20;4.22;;;5.40;92.00;;;;;;4974336;28;20050;-47
2021/03/16 04:26:13;;;;;;;31.38;4.35;;;5.40;92.10;;;;;;4979572;28;20124;-53
2021/03/16 04:28:39;;;;;;;25.23;4.45;;;5.40;92.10;;;;;;4984452;28;20058;-52
2021/03/16 04:31:05;;;;;;;26.98;4.18;;;5.40;92.10;;;;;;4972848;28;20039;-46
2021/03/16 04:33:31;;;;;;;18.70;4.18;;;5.40;92.20;;;;;;4960084;28;20395;-47
2021/03/16 04:35:57;;;;;;;17.83;4.00;;;5.40;92.20;;;;;;4984362;28;20079;-53
2021/03/16 04:38:22;;;;;;;26.38;4.13;;;5.40;92.10;;;;;;4981159;28;20149;-53
2021/03/16 04:40:48;;;;;;;26.75;3.63;;;5.40;92.10;;;;;;4977205;28;20061;-51
2021/03/16 04:43:14;;;;;;;19.55;4.15;;;5.40;92.30;;;;;;4978627;28;20046;-48
2021/03/16 04:45:40;;;;;;;25.20;4.43;;;5.40;92.50;;;;;;4977594;28;20038;-47
2021/03/16 04:48:06;;;;;;;22.27;3.80;;;5.40;92.60;;;;;;4985015;28;20133;-45
2021/03/16 04:50:32;;;;;;;24.90;4.05;;;5.40;92.70;;;;;;4973748;28;20133;-47
2021/03/16 04:52:57;;;;;;;28.63;4.65;;;5.40;92.70;;;;;;4984203;28;20889;-50
2021/03/16 04:55:23;;;;;;;28.13;3.88;;;5.40;92.80;;;;;;4974956;28;20050;-50
2021/03/16 04:57:51;;;;;;;26.73;5.03;;;5.40;92.90;;;;;;4980565;28;20112;-50
2021/03/16 05:00:21;;;;;;;23.20;4.30;;;5.30;92.90;;;;;;4978396;28;20045;-48
2021/03/16 05:02:46;;;;;;;28.05;4.68;;;5.30;92.80;;;;;;4976924;28;20101;-53
2021/03/16 05:05:13;;;;;;;22.05;4.07;;;5.30;92.80;;;;;;4972559;28;20046;-45
2021/03/16 05:07:39;;;;;;;19.95;4.68;;;5.30;92.80;;;;;;4973494;28;20078;-49
2021/03/16 05:10:05;;;;;;;18.70;3.55;;;5.30;92.80;;;;;;4973029;28;20085;-50
2021/03/16 05:12:31;;;;;;;28.27;4.70;;;5.30;92.70;;;;;;4971616;28;20050;-50
2021/03/16 05:14:59;;;;;;;19.75;3.45;;;5.30;92.80;;;;;;4985581;28;20097;-51
2021/03/16 05:17:25;;;;;;;20.33;3.85;;;5.20;92.70;;;;;;4974609;28;20562;-52
2021/03/16 05:19:51;;;;;;;32.05;5.13;;;5.20;92.70;;;;;;4975440;28;20054;-48
2021/03/16 05:22:16;;;;;;;17.77;3.55;;;5.10;92.70;;;;;;4981217;28;20156;-50
2021/03/16 05:24:43;;;;;;;22.63;4.90;;;5.10;92.70;;;;;;4980214;28;20487;-52
2021/03/16 05:27:09;;;;;;;24.83;5.07;;;5.10;92.70;;;;;;4979370;28;20058;-49
2021/03/16 05:29:35;;;;;;;23.52;3.97;;;5.10;92.80;;;;;;4968019;28;20058;-49
2021/03/16 05:32:01;;;;;;;20.85;4.15;;;5.00;92.80;;;;;;4974597;28;20057;-47
2021/03/16 05:34:27;;;;;;;25.45;4.13;;;5.00;92.90;;;;;;4971021;28;20484;-48
2021/03/16 05:36:53;;;;;;;27.80;4.03;;;5.10;92.90;;;;;;4972242;28;20714;-47
2021/03/16 05:39:19;;;;;;;20.40;4.20;;;5.10;92.90;;;;;;4971133;28;20043;-52
2021/03/16 05:41:45;;;;;;;20.67;3.47;;;5.10;92.90;;;;;;4975276;28;20054;-49
2021/03/16 05:44:11;;;;;;;28.48;3.97;;;5.10;92.90;;;;;;4984913;28;20133;-48
2021/03/16 05:46:38;;;;;;;27.27;4.65;;;5.10;92.90;;;;;;4972418;28;20051;-50
2021/03/16 05:49:06;;;;;;;22.23;4.50;;;5.10;92.80;;;;;;4980843;28;20050;-51
2021/03/16 05:51:36;;;;;;;21.17;3.78;;;5.10;92.90;;;;;;4983561;28;20058;-48
2021/03/16 05:54:04;;;;;;;14.77;3.92;;;5.20;92.90;;;;;;4978590;28;20181;-47
2021/03/16 05:56:34;;;;;;;24.33;4.30;;;5.20;92.90;;;;;;4969439;28;20424;-53
2021/03/16 05:59:02;;;;;;;22.35;4.00;;;5.20;92.90;;;;;;4970671;28;20050;-50
2021/03/16 06:01:31;;;;;;;27.15;4.22;;;5.20;92.80;;;;;;4976307;28;20047;-51
2021/03/16 06:03:56;;;;;;;19.70;4.30;;;5.20;92.80;;;;;;4972257;28;20153;-52
2021/03/16 06:06:24;;;;;;;28.17;3.78;;;5.30;92.70;;;;;;4968553;28;20108;-50
2021/03/16 06:08:50;;;;;;;25.02;4.65;;;5.30;92.50;;;;;;4971419;28;20165;-55
2021/03/16 06:11:18;;;;;;;22.05;4.40;;;5.30;92.40;;;;;;4971035;28;20116;-58
2021/03/16 06:13:52;;;;;;;19.95;4.10;;;5.30;92.30;;;;;;4985937;28;20565;-59
2021/03/16 06:16:18;;;;;;;20.88;3.28;;;5.30;92.00;;;;;;4986560;28;20409;-60
2021/03/16 06:18:46;;;;;;;23.00;4.63;;;5.20;92.10;;;;;;4978382;28;20039;-63
2021/03/16 06:21:18;;;;;;;21.17;4.07;;;5.20;92.10;;;;;;4980463;28;20050;-58
2021/03/16 06:23:55;;;;;;;17.48;4.05;;;5.20;92.20;;;;;;4972628;28;20047;-57
2021/03/16 06:26:32;;;;;;;21.70;3.95;;;5.20;92.30;;;;;;4980689;28;20050;-60
2021/03/16 06:29:11;;;;;;;21.23;3.97;;;5.20;92.30;;;;;;4974537;28;20043;-60
2021/03/16 06:31:37;;;;;;;25.27;4.05;;;5.20;92.20;;;;;;4976219;28;20049;-65
2021/03/16 06:34:03;;;;;;;21.35;3.67;;;5.20;92.20;;;;;;4974677;28;20050;-58
2021/03/16 06:36:32;;;;;;;31.30;5.15;;;5.20;92.20;;;;;;4976476;28;20411;-58
2021/03/16 06:38:59;;;;;;;23.80;4.25;;;5.30;92.50;;;;;;4974374;28;20046;-59
2021/03/16 06:41:36;;;;;;;24.83;3.58;;;5.20;92.10;;;;;;4976525;28;20042;-56
2021/03/16 06:44:04;;;;;;;20.75;4.63;;;5.20;92.10;;;;;;4981607;28;20049;-58
2021/03/16 06:46:40;;;;;;;19.42;3.92;;;5.30;92.10;;;;;;4978566;28;20514;-58
2021/03/16 06:49:17;;;;;;;26.58;4.20;;;5.40;92.00;;;;;;4979320;28;20042;-59
2021/03/16 06:51:46;;;;;;;21.50;4.55;;;5.50;92.00;;;;;;4979905;28;20042;-61
2021/03/16 06:54:16;;;;;;;19.50;3.97;;;5.50;92.00;;;;;;4976438;28;20057;-58
2021/03/16 06:56:52;;;;;;;19.83;3.50;;;5.50;91.70;;;;;;4975791;28;20066;-59
2021/03/16 06:59:24;;;;;;;20.60;3.08;;;5.50;91.60;;;;;;4972306;28;20387;-62
2021/03/16 07:01:56;;;;;;;23.10;5.40;;;5.60;91.70;;;;;;4978683;28;20054;-58
2021/03/16 07:04:26;;;;;;;18.23;4.43;;;5.60;91.70;;;;;;4973022;28;20306;-59
2021/03/16 07:06:52;;;;;;;17.23;4.15;;;5.50;91.50;;;;;;4977464;28;20111;-60
2021/03/16 07:09:22;;;;;;;20.55;4.07;;;5.50;91.60;;;;;;4975093;28;20054;-59
2021/03/16 07:11:52;;;;;;;20.50;3.78;;;5.50;91.60;;;;;;4973053;28;20077;-58
2021/03/16 07:14:19;;;;;;;23.88;4.57;;;5.60;91.40;;;;;;4977260;28;20396;-58
2021/03/16 07:16:49;;;;;;;22.77;4.30;;;5.60;91.50;;;;;;4976974;28;20109;-58
2021/03/16 07:19:16;;;;;;;25.85;7.35;;;5.70;91.40;;;;;;4983373;28;20517;-54
2021/03/16 07:21:50;;;;;;;80.78;46.10;;;5.90;91.50;;;;;;4983012;28;20089;-56
2021/03/16 07:24:21;;;;;;;21.83;4.20;;;6.10;91.20;;;;;;4989159;28;20081;-57
2021/03/16 07:26:48;;;;;;;45.72;23.00;;;6.10;91.10;;;;;;4987469;28;20054;-55
2021/03/16 07:29:23;;;;;;;25.17;5.45;;;6.10;90.90;;;;;;4986950;28;20463;-57
2021/03/16 07:31:50;;;;;;;24.55;5.82;;;6.10;90.70;;;;;;4985768;28;20090;-56
2021/03/16 07:34:19;;;;;;;29.15;9.80;;;6.20;90.70;;;;;;4979578;28;20435;-57
2021/03/16 07:36:50;;;;;;;22.05;6.13;;;6.20;90.80;;;;;;4987054;28;20042;-55
2021/03/16 07:39:20;;;;;;;31.05;11.57;;;6.20;90.40;;;;;;4989883;28;20415;-57
2021/03/16 07:41:50;;;;;;;67.43;39.88;;;6.30;90.30;;;;;;4983161;28;20046;-57
2021/03/16 07:44:18;;;;;;;28.33;10.65;;;6.60;90.30;;;;;;4978120;28;20081;-56
2021/03/16 07:46:59;;;;;;;17.73;3.47;;;7.10;89.60;;;;;;4988869;28;20499;-58
2021/03/16 07:49:39;;;;;;;17.05;3.53;;;7.70;87.90;;;;;;4985415;28;20042;-55
2021/03/16 07:52:16;;;;;;;28.67;10.40;;;8.10;82.40;;;;;;4986340;28;20056;-57
2021/03/16 07:54:48;;;;;;;12.43;3.78;;;8.40;81.30;;;;;;4987372;28;20065;-57
2021/03/16 07:57:30;;;;;;;23.02;4.35;;;8.40;79.20;;;;;;4983995;28;20059;-58
2021/03/16 08:00:07;;;;;;;19.23;4.13;;;8.70;80.50;;;;;;4993915;28;20052;-58
2021/03/16 08:02:35;;;;;;;22.17;4.97;;;8.50;79.40;;;;;;4987031;28;20102;-57
2021/03/16 08:05:12;;;;;;;58.10;38.40;;;8.20;80.80;;;;;;4990030;28;20050;-56
2021/03/16 08:07:40;;;;;;;41.10;23.73;;;8.20;83.20;;;;;;4980455;28;20069;-55
2021/03/16 08:10:07;;;;;;;19.85;4.60;;;8.20;82.60;;;;;;4985957;28;20049;-55
2021/03/16 08:12:37;;;;;;;18.42;4.72;;;8.10;82.30;;;;;;4983586;28;20050;-54
2021/03/16 08:15:14;;;;;;;19.85;5.55;;;7.90;82.50;;;;;;4984173;28;20133;-53
2021/03/16 08:17:41;;;;;;;19.40;5.32;;;7.70;82.20;;;;;;4984315;28;20055;-56
2021/03/16 08:20:25;;;;;;;17.15;3.85;;;7.50;82.00;;;;;;4975370;28;20091;-54
2021/03/16 08:23:01;;;;;;;21.52;6.47;;;7.30;82.10;;;;;;4976192;28;20047;-56
2021/03/16 08:25:27;;;;;;;18.92;4.03;;;7.40;83.20;;;;;;4984079;28;20399;-55
2021/03/16 08:27:54;;;;;;;19.08;3.35;;;7.40;83.30;;;;;;4988193;28;20050;-55
2021/03/16 08:30:25;;;;;;;17.05;3.40;;;8.00;82.90;;;;;;4981038;28;20058;-57
2021/03/16 08:32:51;;;;;;;18.55;6.70;;;8.20;80.70;;;;;;4981504;28;20046;-56
2021/03/16 08:35:18;;;;;;;18.77;6.68;;;8.50;79.20;;;;;;4977607;28;20043;-56
2021/03/16 08:37:44;;;;;;;23.20;9.63;;;8.90;77.00;;;;;;4978430;28;20134;-56
2021/03/16 08:40:19;;;;;;;22.02;4.25;;;9.60;75.90;;;;;;4980224;28;20118;-57
2021/03/16 08:42:45;;;;;;;14.75;3.60;;;10.40;76.30;;;;;;4987163;28;20141;-54
2021/03/16 08:45:12;;;;;;;14.48;2.80;;;10.50;69.60;;;;;;4988534;28;20216;-56
2021/03/16 08:47:40;;;;;;;17.20;3.15;;;11.30;69.70;;;;;;4986638;28;20403;-53
2021/03/16 08:50:13;;;;;;;12.98;3.38;;;11.80;70.00;;;;;;4980976;28;20485;-53
2021/03/16 08:52:39;;;;;;;11.88;3.25;;;12.10;65.00;;;;;;4977370;28;20054;-50
2021/03/16 08:55:08;;;;;;;12.55;2.38;;;12.30;60.10;;;;;;4986066;28;20085;-54
2021/03/16 08:57:34;;;;;;;53.97;43.05;;;12.10;60.90;;;;;;4987717;28;20113;-54
2021/03/16 09:00:06;;;;;;;14.55;7.25;;;11.90;63.00;;;;;;4984998;28;20054;-51
2021/03/16 09:02:36;;;;;;;61.03;46.92;;;11.70;66.50;;;;;;4984766;28;20050;-53
2021/03/16 09:05:02;;;;;;;13.15;4.20;;;10.90;66.30;;;;;;4996555;28;20533;-53
2021/03/16 09:07:36;;;;;;;12.13;3.92;;;10.60;63.10;;;;;;4985194;28;20059;-57
2021/03/16 09:10:20;;;;;;;10.10;2.53;;;11.10;66.80;;;;;;4988547;28;20112;-50
2021/03/16 09:12:47;;;;;;;12.02;2.85;;;11.40;60.50;;;;;;4970152;28;20404;-54
2021/03/16 09:15:35;;;;;;;11.48;1.90;;;11.50;61.40;;;;;;4982650;28;20767;-53
2021/03/16 09:18:04;;;;;;;12.60;2.25;;;11.60;60.00;;;;;;4975512;28;20042;-54
2021/03/16 09:20:36;;;;;;;11.00;2.58;;;12.20;62.30;;;;;;4980035;28;20058;-51
2021/03/16 09:23:04;;;;;;;6.50;2.00;;;12.00;60.40;;;;;;4973416;28;20058;-53
2021/03/16 09:25:32;;;;;;;12.15;3.95;;;12.20;56.60;;;;;;4977238;28;20043;-54
2021/03/16 09:28:02;;;;;;;7.82;2.33;;;12.30;56.80;;;;;;4986362;28;20086;-55
2021/03/16 09:30:44;;;;;;;10.50;2.03;;;12.10;60.00;;;;;;4985680;28;20137;-55
2021/03/16 09:33:13;;;;;;;7.95;2.38;;;12.70;57.00;;;;;;4953986;28;20193;-56
2021/03/16 09:35:39;;;;;;;10.85;2.15;;;13.20;57.20;;;;;;4992534;28;20451;-55
2021/03/16 09:38:07;;;;;;;14.75;4.93;;;14.10;58.00;;;;;;4989467;28;20158;-55
2021/03/16 09:40:39;;;;;;;24.58;17.05;;;14.40;55.50;;;;;;4993288;28;20050;-55
2021/03/16 09:43:22;;;;;;;11.63;3.72;;;13.80;56.50;;;;;;4988546;28;20043;-53
2021/03/16 09:46:00;;;;;;;10.63;3.58;;;12.90;55.50;;;;;;4987874;28;20057;-51
2021/03/16 09:48:29;;;;;;;15.23;6.97;;;13.00;56.50;;;;;;4991336;28;20069;-53
2021/03/16 09:50:58;;;;;;;8.30;2.08;;;12.70;59.30;;;;;;4971858;28;20053;-53
2021/03/16 09:53:29;;;;;;;12.48;3.70;;;12.40;56.30;;;;;;4987092;28;20056;-55
2021/03/16 09:56:00;;;;;;;10.13;2.22;;;12.60;57.10;;;;;;4991515;28;20446;-52
2021/03/16 09:58:29;;;;;;;29.95;18.05;;;12.80;56.60;;;;;;4990955;28;20053;-54
2021/03/16 10:01:00;;;;;;;16.30;5.13;;;12.70;59.40;;;;;;4989631;28;20047;-52
2021/03/16 10:03:26;;;;;;;12.48;2.63;;;13.00;56.90;;;;;;4981889;28;20046;-52
2021/03/16 10:06:05;;;;;;;9.23;2.70;;;12.70;55.60;;;;;;4989164;28;20045;-54
2021/03/16 10:08:32;;;;;;;25.50;16.40;;;12.70;56.30;;;;;;4987721;28;20448;-53
2021/03/16 10:10:59;;;;;;;10.73;4.35;;;12.90;58.50;;;;;;4984486;28;20054;-51
2021/03/16 10:13:34;;;;;;;11.82;6.35;;;13.00;55.00;;;;;;4984275;28;20038;-49
2021/03/16 10:16:14;;;;;;;21.48;14.52;;;13.30;53.90;;;;;;4993718;28;20046;-53
2021/03/16 10:18:46;;;;;;;25.33;17.40;;;13.60;54.10;;;;;;4991481;28;20047;-54
2021/03/16 10:21:12;;;;;;;11.95;4.90;;;14.00;56.70;;;;;;4987804;28;20050;-54
2021/03/16 10:23:41;;;;;;;8.38;2.08;;;14.00;53.60;;;;;;4987490;28;20061;-56
2021/03/16 10:26:11;;;;;;;9.43;2.60;;;13.30;51.30;;;;;;4988115;28;20057;-55
2021/03/16 10:28:45;;;;;;;9.63;2.10;;;13.50;53.60;;;;;;4988214;28;20057;-53
2021/03/16 10:31:15;;;;;;;10.48;2.13;;;13.70;52.10;;;;;;4987545;28;20082;-52
2021/03/16 10:33:52;;;;;;;6.07;1.50;;;13.10;51.70;;;;;;4976407;28;20053;-54
2021/03/16 10:36:20;;;;;;;8.30;1.92;;;13.50;54.40;;;;;;4987958;28;20305;-55
2021/03/16 10:38:48;;;;;;;9.65;2.17;;;13.90;53.10;;;;;;4990321;28;20050;-54
2021/03/16 10:41:18;;;;;;;8.10;1.67;;;13.20;50.60;;;;;;4975420;28;20055;-49
2021/03/16 10:43:45;;;;;;;8.57;1.98;;;12.60;52.00;;;;;;4966515;28;20054;-51
2021/03/16 10:46:13;;;;;;;5.97;1.55;;;12.10;55.80;;;;;;4980727;28;20125;-53
2021/03/16 10:48:39;;;;;;;9.40;1.88;;;11.80;56.70;;;;;;4987670;28;20530;-52
2021/03/16 10:51:08;;;;;;;10.77;2.42;;;11.60;57.70;;;;;;4992182;28;20061;-55
2021/03/16 10:53:36;;;;;;;7.38;1.63;;;11.60;57.70;;;;;;4993194;28;20427;-53
2021/03/16 10:56:05;;;;;;;9.52;1.98;;;11.50;58.50;;;;;;4986002;28;20058;-52
2021/03/16 10:58:32;;;;;;;13.90;2.17;;;11.40;59.10;;;;;;4969854;28;20519;-52
2021/03/16 11:00:58;;;;;;;11.80;2.67;;;11.00;58.90;;;;;;4985870;28;20078;-53
2021/03/16 11:03:27;;;;;;;11.48;1.90;;;11.10;58.70;;;;;;4986837;28;20054;-52
2021/03/16 11:05:54;;;;;;;10.52;1.70;;;11.30;59.00;;;;;;4981406;28;20057;-51
2021/03/16 11:08:20;;;;;;;9.43;2.35;;;12.50;56.80;;;;;;4969085;28;20190;-55
2021/03/16 11:10:48;;;;;;;8.52;1.77;;;13.60;55.40;;;;;;4974804;28;20051;-54
2021/03/16 11:13:14;;;;;;;7.97;1.77;;;14.30;53.80;;;;;;4986616;28;20046;-55
2021/03/16 11:15:43;;;;;;;7.32;1.25;;;15.00;51.60;;;;;;4987257;28;20116;-52
2021/03/16 11:18:09;;;;;;;8.68;1.90;;;15.40;49.00;;;;;;4982569;28;20058;-55
2021/03/16 11:20:35;;;;;;;7.53;1.48;;;16.00;45.60;;;;;;4985395;28;20096;-56
2021/03/16 11:23:02;;;;;;;7.45;2.10;;;16.40;47.00;;;;;;4988948;28;20049;-56
2021/03/16 11:25:33;;;;;;;7.25;1.80;;;16.70;44.90;;;;;;4980214;28;20057;-56
2021/03/16 11:27:58;;;;;;;10.50;1.98;;;16.60;44.20;;;;;;4977438;28;20166;-52
2021/03/16 11:30:29;;;;;;;8.32;1.80;;;16.30;44.60;;;;;;4981589;28;20674;-53
2021/03/16 11:32:55;;;;;;;6.10;1.60;;;15.10;47.00;;;;;;4986214;28;20062;-53
2021/03/16 11:35:24;;;;;;;8.23;1.83;;;14.20;47.50;;;;;;4985482;28;20515;-56
2021/03/16 11:37:49;;;;;;;6.88;1.60;;;13.80;48.30;;;;;;4980000;28;20579;-53
2021/03/16 11:40:16;;;;;;;11.30;2.88;;;14.40;50.10;;;;;;4986281;28;20161;-53
2021/03/16 11:42:44;;;;;;;8.52;1.88;;;14.80;47.70;;;;;;4984229;28;20054;-56
2021/03/16 11:45:10;;;;;;;8.15;1.88;;;14.70;46.80;;;;;;4985096;28;20503;-55
2021/03/16 11:47:38;;;;;;;7.47;1.83;;;15.30;50.00;;;;;;4985016;28;20061;-52
2021/03/16 11:50:05;;;;;;;8.05;1.55;;;15.60;48.00;;;;;;4985041;28;20077;-55
2021/03/16 11:52:31;;;;;;;8.82;1.90;;;15.70;45.40;;;;;;4984948;28;20058;-55
2021/03/16 11:54:57;;;;;;;9.55;1.40;;;15.40;46.30;;;;;;4984801;28;20057;-53
2021/03/16 11:57:23;;;;;;;9.00;2.00;;;14.90;47.50;;;;;;4980038;28;20919;-53
2021/03/16 11:59:49;;;;;;;6.97;1.48;;;13.70;50.20;;;;;;4988962;28;20049;-54
2021/03/16 12:02:16;;;;;;;8.68;2.35;;;13.20;51.30;;;;;;5001127;28;20699;-58
2021/03/16 12:04:42;;;;;;;7.70;1.70;;;12.80;51.30;;;;;;4990956;28;20042;-59
2021/03/16 12:07:08;;;;;;;7.72;1.80;;;12.20;52.50;;;;;;4997927;28;20092;-59
2021/03/16 12:09:34;;;;;;;9.07;1.98;;;11.80;54.70;;;;;;4978241;28;20062;-58
2021/03/16 12:12:00;;;;;;;7.82;1.48;;;12.50;54.70;;;;;;4984232;28;20229;-59
2021/03/16 12:14:25;;;;;;;7.47;1.30;;;13.50;53.60;;;;;;4984718;28;20061;-58
2021/03/16 12:16:51;;;;;;;9.07;1.92;;;13.80;50.40;;;;;;4967617;28;20066;-58
2021/03/16 12:19:17;;;;;;;9.65;1.85;;;14.90;50.80;;;;;;4985280;28;20096;-59
2021/03/16 12:21:45;;;;;;;6.78;1.42;;;14.90;49.40;;;;;;4985405;28;20060;-58
2021/03/16 12:24:11;;;;;;;7.22;1.42;;;14.40;48.20;;;;;;4989726;28;20491;-59
2021/03/16 12:26:39;;;;;;;7.22;1.55;;;13.60;49.80;;;;;;4967577;28;20046;-59
2021/03/16 12:29:06;;;;;;;5.38;1.20;;;13.00;50.40;;;;;;4966998;28;20280;-59
2021/03/16 12:31:33;;;;;;;10.63;1.63;;;12.00;51.30;;;;;;4966869;28;20069;-58
2021/03/16 12:33:59;;;;;;;9.85;1.83;;;11.80;52.10;;;;;;4970750;28;20077;-59
2021/03/16 12:36:24;;;;;;;7.40;1.08;;;11.70;52.40;;;;;;4986178;28;20498;-59
2021/03/16 12:38:50;;;;;;;9.23;1.80;;;11.50;52.40;;;;;;4989265;28;20093;-58
2021/03/16 12:41:19;;;;;;;7.78;2.05;;;11.80;52.20;;;;;;4996440;28;20495;-60
2021/03/16 12:43:44;;;;;;;5.97;2.10;;;12.60;48.70;;;;;;4988571;28;20170;-58
2021/03/16 12:46:10;;;;;;;7.97;1.92;;;12.60;50.40;;;;;;4988547;28;20153;-58
2021/03/16 12:48:36;;;;;;;9.70;2.00;;;12.00;47.50;;;;;;4988664;28;20558;-58
2021/03/16 12:51:02;;;;;;;6.63;1.67;;;11.40;49.10;;;;;;4970730;28;20055;-59
2021/03/16 12:53:28;;;;;;;5.57;1.75;;;11.30;49.80;;;;;;4970406;28;20050;-59